sensor_id;sensor_type;location;lat;lon;timestamp;temperature;humidity
55207;DHT22;41079;52.856;6.534;2022-07-29T00:04:30;14.30;99.90
55207;DHT22;41079;52.856;6.534;2022-07-29T00:10:37;14.30;99.90
55207;DHT22;41079;52.856;6.534;2022-07-29T00:13:13;14.30;99.90
55207;DHT22;41079;52.856;6.534;2022-07-29T00:18:51;14.20;99.90
55207;DHT22;41079;52.856;6.534;2022-07-29T00:34:33;14.20;99.90
55207;DHT22;41079;52.856;6.534;2022-07-29T00:40:58;14.20;99.90
55207;DHT22;41079;52.856;6.534;2022-07-29T00:43:44;14.10;99.90
55207;DHT22;41079;52.856;6.534;2022-07-29T00:50:14;14.10;99.90
55207;DHT22;41079;52.856;6.534;2022-07-29T00:52:40;14.00;99.90
55207;DHT22;41079;52.856;6.534;2022-07-29T00:59:00;14.00;99.90
55207;DHT22;41079;52.856;6.534;2022-07-29T01:01:42;14.00;99.90
55207;DHT22;41079;52.856;6.534;2022-07-29T01:04:37;14.00;99.90
55207;DHT22;41079;52.856;6.534;2022-07-29T01:21:56;14.10;99.90
55207;DHT22;41079;52.856;6.534;2022-07-29T01:35:25;14.20;99.90
55207;DHT22;41079;52.856;6.534;2022-07-29T01:41:45;14.20;99.90
55207;DHT22;41079;52.856;6.534;2022-07-29T01:58:13;14.40;99.90
55207;DHT22;41079;52.856;6.534;2022-07-29T02:00:42;14.30;99.90
55207;DHT22;41079;52.856;6.534;2022-07-29T02:03:17;14.30;99.90
55207;DHT22;41079;52.856;6.534;2022-07-29T02:09:35;14.20;99.90
55207;DHT22;41079;52.856;6.534;2022-07-29T02:12:36;14.20;99.90
55207;DHT22;41079;52.856;6.534;2022-07-29T02:34:30;14.20;99.90
55207;DHT22;41079;52.856;6.534;2022-07-29T02:37:30;14.20;99.90
55207;DHT22;41079;52.856;6.534;2022-07-29T02:47:39;14.10;99.90
55207;DHT22;41079;52.856;6.534;2022-07-29T02:57:36;14.00;99.90
55207;DHT22;41079;52.856;6.534;2022-07-29T03:03:45;14.00;99.90
55207;DHT22;41079;52.856;6.534;2022-07-29T03:10:15;14.00;99.90
55207;DHT22;41079;52.856;6.534;2022-07-29T03:13:16;14.00;99.90
55207;DHT22;41079;52.856;6.534;2022-07-29T03:30:28;13.90;99.90
55207;DHT22;41079;52.856;6.534;2022-07-29T03:51:02;13.60;99.90
55207;DHT22;41079;52.856;6.534;2022-07-29T03:56:59;13.60;99.90
55207;DHT22;41079;52.856;6.534;2022-07-29T03:59:30;13.70;99.90
55207;DHT22;41079;52.856;6.534;2022-07-29T04:02:13;13.60;99.90
55207;DHT22;41079;52.856;6.534;2022-07-29T04:08:19;13.60;99.90
55207;DHT22;41079;52.856;6.534;2022-07-29T04:10:51;13.60;99.90
55207;DHT22;41079;52.856;6.534;2022-07-29T04:13:32;13.60;99.90
55207;DHT22;41079;52.856;6.534;2022-07-29T04:16:20;13.70;99.90
55207;DHT22;41079;52.856;6.534;2022-07-29T04:22:26;13.70;99.90
55207;DHT22;41079;52.856;6.534;2022-07-29T04:33:09;13.70;99.90
55207;DHT22;41079;52.856;6.534;2022-07-29T04:35:44;13.80;99.90
55207;DHT22;41079;52.856;6.534;2022-07-29T04:41:47;13.80;99.90
55207;DHT22;41079;52.856;6.534;2022-07-29T04:54:21;13.80;99.90
55207;DHT22;41079;52.856;6.534;2022-07-29T05:07:50;13.80;99.90
55207;DHT22;41079;52.856;6.534;2022-07-29T06:00:47;14.60;99.90
55207;DHT22;41079;52.856;6.534;2022-07-29T06:03:43;14.70;99.90
55207;DHT22;41079;52.856;6.534;2022-07-29T06:16:45;15.30;99.90
55207;DHT22;41079;52.856;6.534;2022-07-29T06:19:24;15.50;99.90
55207;DHT22;41079;52.856;6.534;2022-07-29T06:22:07;15.60;99.90
55207;DHT22;41079;52.856;6.534;2022-07-29T07:19:51;15.70;99.90
55207;DHT22;41079;52.856;6.534;2022-07-29T07:22:42;15.70;99.90
55207;DHT22;41079;52.856;6.534;2022-07-29T07:25:10;15.70;99.90
55207;DHT22;41079;52.856;6.534;2022-07-29T07:28:04;15.80;99.90
55207;DHT22;41079;52.856;6.534;2022-07-29T07:30:58;15.80;99.90
55207;DHT22;41079;52.856;6.534;2022-07-29T07:33:34;15.90;99.90
55207;DHT22;41079;52.856;6.534;2022-07-29T07:35:59;15.90;99.90
55207;DHT22;41079;52.856;6.534;2022-07-29T07:38:25;16.00;99.90
55207;DHT22;41079;52.856;6.534;2022-07-29T07:40:54;16.10;99.90
55207;DHT22;41079;52.856;6.534;2022-07-29T07:43:25;16.20;99.90
55207;DHT22;41079;52.856;6.534;2022-07-29T07:46:05;16.20;99.90
55207;DHT22;41079;52.856;6.534;2022-07-29T07:48:39;16.30;99.90
55207;DHT22;41079;52.856;6.534;2022-07-29T07:54:06;16.40;99.90
55207;DHT22;41079;52.856;6.534;2022-07-29T07:59:33;16.60;99.90
55207;DHT22;41079;52.856;6.534;2022-07-29T08:02:07;16.70;99.90
55207;DHT22;41079;52.856;6.534;2022-07-29T08:04:33;16.70;99.90
55207;DHT22;41079;52.856;6.534;2022-07-29T08:07:05;16.70;99.90
55207;DHT22;41079;52.856;6.534;2022-07-29T08:13:08;17.00;99.90
55207;DHT22;41079;52.856;6.534;2022-07-29T08:15:39;17.10;99.90
55207;DHT22;41079;52.856;6.534;2022-07-29T08:18:13;17.30;99.90
55207;DHT22;41079;52.856;6.534;2022-07-29T08:23:45;17.90;99.90
55207;DHT22;41079;52.856;6.534;2022-07-29T08:26:29;18.20;99.90
55207;DHT22;41079;52.856;6.534;2022-07-29T08:28:59;18.40;99.90
55207;DHT22;41079;52.856;6.534;2022-07-29T08:31:30;18.50;99.90
55207;DHT22;41079;52.856;6.534;2022-07-29T08:34:30;18.50;99.90
55207;DHT22;41079;52.856;6.534;2022-07-29T08:37:21;18.40;99.90
55207;DHT22;41079;52.856;6.534;2022-07-29T08:43:13;18.40;99.90
55207;DHT22;41079;52.856;6.534;2022-07-29T08:45:49;18.50;99.90
55207;DHT22;41079;52.856;6.534;2022-07-29T08:48:24;18.60;99.90
55207;DHT22;41079;52.856;6.534;2022-07-29T08:50:54;18.70;99.90
55207;DHT22;41079;52.856;6.534;2022-07-29T08:56:34;18.60;99.90
55207;DHT22;41079;52.856;6.534;2022-07-29T08:59:04;18.60;99.90
55207;DHT22;41079;52.856;6.534;2022-07-29T09:01:33;18.50;99.90
55207;DHT22;41079;52.856;6.534;2022-07-29T09:04:03;18.50;99.90
55207;DHT22;41079;52.856;6.534;2022-07-29T09:06:47;18.60;99.90
55207;DHT22;41079;52.856;6.534;2022-07-29T09:09:21;18.60;99.90
55207;DHT22;41079;52.856;6.534;2022-07-29T09:11:48;18.50;99.90
55207;DHT22;41079;52.856;6.534;2022-07-29T09:14:21;18.50;99.90
55207;DHT22;41079;52.856;6.534;2022-07-29T09:16:55;18.50;99.90
55207;DHT22;41079;52.856;6.534;2022-07-29T09:21:53;18.50;99.90
55207;DHT22;41079;52.856;6.534;2022-07-29T09:24:43;18.50;99.90
55207;DHT22;41079;52.856;6.534;2022-07-29T09:27:22;18.50;99.90
55207;DHT22;41079;52.856;6.534;2022-07-29T09:30:08;18.50;99.90
55207;DHT22;41079;52.856;6.534;2022-07-29T09:35:23;18.60;99.90
55207;DHT22;41079;52.856;6.534;2022-07-29T09:37:51;18.50;99.90
55207;DHT22;41079;52.856;6.534;2022-07-29T09:40:24;18.40;99.90
55207;DHT22;41079;52.856;6.534;2022-07-29T09:42:50;18.40;99.90
55207;DHT22;41079;52.856;6.534;2022-07-29T09:45:31;18.20;99.90
55207;DHT22;41079;52.856;6.534;2022-07-29T09:47:58;18.10;99.90
55207;DHT22;41079;52.856;6.534;2022-07-29T09:50:38;18.10;99.90
55207;DHT22;41079;52.856;6.534;2022-07-29T09:53:04;18.10;99.90
55207;DHT22;41079;52.856;6.534;2022-07-29T09:55:30;18.00;99.90
55207;DHT22;41079;52.856;6.534;2022-07-29T09:58:18;18.00;99.90
55207;DHT22;41079;52.856;6.534;2022-07-29T10:00:45;18.00;99.90
55207;DHT22;41079;52.856;6.534;2022-07-29T10:03:12;18.20;99.90
55207;DHT22;41079;52.856;6.534;2022-07-29T10:05:39;18.30;99.90
55207;DHT22;41079;52.856;6.534;2022-07-29T10:08:06;18.30;99.90
55207;DHT22;41079;52.856;6.534;2022-07-29T10:10:38;18.30;99.90
55207;DHT22;41079;52.856;6.534;2022-07-29T10:13:11;18.30;99.90
55207;DHT22;41079;52.856;6.534;2022-07-29T10:15:42;18.20;99.90
55207;DHT22;41079;52.856;6.534;2022-07-29T10:18:11;18.20;99.90
55207;DHT22;41079;52.856;6.534;2022-07-29T10:20:44;18.30;99.90
55207;DHT22;41079;52.856;6.534;2022-07-29T10:23:10;18.30;99.90
55207;DHT22;41079;52.856;6.534;2022-07-29T10:26:04;18.40;99.90
55207;DHT22;41079;52.856;6.534;2022-07-29T10:28:38;18.50;99.90
55207;DHT22;41079;52.856;6.534;2022-07-29T10:31:19;18.60;99.90
55207;DHT22;41079;52.856;6.534;2022-07-29T10:36:40;19.00;99.90
55207;DHT22;41079;52.856;6.534;2022-07-29T10:41:59;19.80;99.90
55207;DHT22;41079;52.856;6.534;2022-07-29T10:44:28;20.10;99.90
55207;DHT22;41079;52.856;6.534;2022-07-29T10:46:58;20.40;99.90
55207;DHT22;41079;52.856;6.534;2022-07-29T10:49:30;20.80;99.90
55207;DHT22;41079;52.856;6.534;2022-07-29T10:51:59;21.00;98.60
55207;DHT22;41079;52.856;6.534;2022-07-29T10:54:46;21.00;97.80
55207;DHT22;41079;52.856;6.534;2022-07-29T10:59:50;20.80;96.80
55207;DHT22;41079;52.856;6.534;2022-07-29T11:02:42;20.80;97.20
55207;DHT22;41079;52.856;6.534;2022-07-29T11:05:17;20.80;97.00
55207;DHT22;41079;52.856;6.534;2022-07-29T11:10:35;20.60;97.70
55207;DHT22;41079;52.856;6.534;2022-07-29T11:13:05;20.70;98.60
55207;DHT22;41079;52.856;6.534;2022-07-29T11:15:57;21.10;97.40
55207;DHT22;41079;52.856;6.534;2022-07-29T11:21:44;22.40;95.50
55207;DHT22;41079;52.856;6.534;2022-07-29T11:24:20;22.50;93.80
55207;DHT22;41079;52.856;6.534;2022-07-29T11:27:17;22.20;93.90
55207;DHT22;41079;52.856;6.534;2022-07-29T11:29:52;22.00;95.20
55207;DHT22;41079;52.856;6.534;2022-07-29T11:32:19;22.20;95.00
55207;DHT22;41079;52.856;6.534;2022-07-29T11:35:10;22.30;94.20
55207;DHT22;41079;52.856;6.534;2022-07-29T11:37:39;22.30;94.10
55207;DHT22;41079;52.856;6.534;2022-07-29T11:42:37;22.10;94.20
55207;DHT22;41079;52.856;6.534;2022-07-29T11:48:18;21.60;94.60
55207;DHT22;41079;52.856;6.534;2022-07-29T11:54:34;21.40;94.90
55207;DHT22;41079;52.856;6.534;2022-07-29T11:57:31;21.20;95.80
55207;DHT22;41079;52.856;6.534;2022-07-29T11:59:57;21.00;95.90
55207;DHT22;41079;52.856;6.534;2022-07-29T12:02:45;21.00;96.40
55207;DHT22;41079;52.856;6.534;2022-07-29T12:05:10;21.20;97.40
55207;DHT22;41079;52.856;6.534;2022-07-29T12:07:37;21.80;96.70
55207;DHT22;41079;52.856;6.534;2022-07-29T12:10:04;22.30;96.00
55207;DHT22;41079;52.856;6.534;2022-07-29T12:12:37;22.60;95.40
55207;DHT22;41079;52.856;6.534;2022-07-29T12:15:18;22.60;93.60
55207;DHT22;41079;52.856;6.534;2022-07-29T12:17:46;22.50;94.30
55207;DHT22;41079;52.856;6.534;2022-07-29T12:20:12;22.50;95.00
55207;DHT22;41079;52.856;6.534;2022-07-29T12:22:41;22.80;94.80
55207;DHT22;41079;52.856;6.534;2022-07-29T12:25:20;23.20;94.70
55207;DHT22;41079;52.856;6.534;2022-07-29T12:28:12;23.50;93.00
55207;DHT22;41079;52.856;6.534;2022-07-29T12:30:46;23.80;92.80
55207;DHT22;41079;52.856;6.534;2022-07-29T12:33:26;24.10;92.40
55207;DHT22;41079;52.856;6.534;2022-07-29T12:36:02;24.50;92.40
55207;DHT22;41079;52.856;6.534;2022-07-29T12:38:30;25.00;91.00
55207;DHT22;41079;52.856;6.534;2022-07-29T12:41:12;25.20;90.70
55207;DHT22;41079;52.856;6.534;2022-07-29T12:43:38;25.20;90.00
55207;DHT22;41079;52.856;6.534;2022-07-29T12:46:17;25.40;85.20
55207;DHT22;41079;52.856;6.534;2022-07-29T12:48:44;25.40;82.30
55207;DHT22;41079;52.856;6.534;2022-07-29T12:51:17;24.80;80.30
55207;DHT22;41079;52.856;6.534;2022-07-29T12:54:22;24.10;82.90
55207;DHT22;41079;52.856;6.534;2022-07-29T12:56:58;23.80;86.60
55207;DHT22;41079;52.856;6.534;2022-07-29T12:59:26;23.90;87.60
55207;DHT22;41079;52.856;6.534;2022-07-29T13:01:52;24.20;87.00
55207;DHT22;41079;52.856;6.534;2022-07-29T13:04:25;24.30;88.20
55207;DHT22;41079;52.856;6.534;2022-07-29T13:07:25;24.20;86.20
55207;DHT22;41079;52.856;6.534;2022-07-29T13:10:17;24.00;85.70
55207;DHT22;41079;52.856;6.534;2022-07-29T13:13:04;23.70;86.60
55207;DHT22;41079;52.856;6.534;2022-07-29T13:15:29;23.60;86.00
55207;DHT22;41079;52.856;6.534;2022-07-29T13:17:55;23.40;89.20
55207;DHT22;41079;52.856;6.534;2022-07-29T13:20:24;23.30;89.30
55207;DHT22;41079;52.856;6.534;2022-07-29T13:22:50;23.20;90.00
55207;DHT22;41079;52.856;6.534;2022-07-29T13:25:30;23.40;90.30
55207;DHT22;41079;52.856;6.534;2022-07-29T13:27:57;23.50;90.20
55207;DHT22;41079;52.856;6.534;2022-07-29T13:30:24;23.60;87.30
55207;DHT22;41079;52.856;6.534;2022-07-29T13:32:51;23.50;88.60
55207;DHT22;41079;52.856;6.534;2022-07-29T13:35:18;23.50;89.00
55207;DHT22;41079;52.856;6.534;2022-07-29T13:37:43;23.60;88.70
55207;DHT22;41079;52.856;6.534;2022-07-29T13:40:10;23.60;88.60
55207;DHT22;41079;52.856;6.534;2022-07-29T13:42:36;23.70;88.00
55207;DHT22;41079;52.856;6.534;2022-07-29T13:45:03;23.90;88.10
55207;DHT22;41079;52.856;6.534;2022-07-29T13:47:30;24.10;87.10
55207;DHT22;41079;52.856;6.534;2022-07-29T13:49:55;24.20;83.20
55207;DHT22;41079;52.856;6.534;2022-07-29T13:52:21;24.20;80.80
55207;DHT22;41079;52.856;6.534;2022-07-29T13:54:47;24.00;80.80
55207;DHT22;41079;52.856;6.534;2022-07-29T13:57:13;23.80;80.90
55207;DHT22;41079;52.856;6.534;2022-07-29T13:59:41;23.80;79.80
55207;DHT22;41079;52.856;6.534;2022-07-29T14:02:08;23.90;80.60
55207;DHT22;41079;52.856;6.534;2022-07-29T14:04:34;24.00;80.40
55207;DHT22;41079;52.856;6.534;2022-07-29T14:06:59;24.00;80.10
55207;DHT22;41079;52.856;6.534;2022-07-29T14:09:25;24.10;80.60
55207;DHT22;41079;52.856;6.534;2022-07-29T14:11:50;24.10;79.70
55207;DHT22;41079;52.856;6.534;2022-07-29T14:14:18;24.20;80.10
55207;DHT22;41079;52.856;6.534;2022-07-29T14:16:44;24.30;79.70
55207;DHT22;41079;52.856;6.534;2022-07-29T14:19:09;24.30;79.20
55207;DHT22;41079;52.856;6.534;2022-07-29T14:21:37;24.20;80.00
55207;DHT22;41079;52.856;6.534;2022-07-29T14:24:03;24.10;78.70
55207;DHT22;41079;52.856;6.534;2022-07-29T14:26:28;24.00;79.70
55207;DHT22;41079;52.856;6.534;2022-07-29T14:28:54;23.90;78.90
55207;DHT22;41079;52.856;6.534;2022-07-29T14:31:19;23.70;78.80
55207;DHT22;41079;52.856;6.534;2022-07-29T14:33:45;23.50;79.20
55207;DHT22;41079;52.856;6.534;2022-07-29T14:36:11;23.40;81.10
55207;DHT22;41079;52.856;6.534;2022-07-29T14:38:36;23.30;82.50
55207;DHT22;41079;52.856;6.534;2022-07-29T14:41:06;23.30;81.90
55207;DHT22;41079;52.856;6.534;2022-07-29T14:43:33;23.40;82.60
55207;DHT22;41079;52.856;6.534;2022-07-29T14:45:59;23.50;83.70
55207;DHT22;41079;52.856;6.534;2022-07-29T14:48:25;23.60;82.80
55207;DHT22;41079;52.856;6.534;2022-07-29T14:50:51;23.60;81.50
55207;DHT22;41079;52.856;6.534;2022-07-29T14:53:16;23.60;82.10
55207;DHT22;41079;52.856;6.534;2022-07-29T14:55:42;23.60;82.30
55207;DHT22;41079;52.856;6.534;2022-07-29T14:58:08;23.70;82.80
55207;DHT22;41079;52.856;6.534;2022-07-29T15:00:33;23.70;82.80
55207;DHT22;41079;52.856;6.534;2022-07-29T15:03:00;23.80;81.90
55207;DHT22;41079;52.856;6.534;2022-07-29T15:05:26;23.90;81.40
55207;DHT22;41079;52.856;6.534;2022-07-29T15:07:52;24.00;82.90
55207;DHT22;41079;52.856;6.534;2022-07-29T15:10:17;24.30;80.80
55207;DHT22;41079;52.856;6.534;2022-07-29T15:12:43;24.50;80.70
55207;DHT22;41079;52.856;6.534;2022-07-29T15:15:09;24.70;78.30
55207;DHT22;41079;52.856;6.534;2022-07-29T15:17:34;24.80;79.10
55207;DHT22;41079;52.856;6.534;2022-07-29T15:20:00;25.00;79.60
55207;DHT22;41079;52.856;6.534;2022-07-29T15:22:26;25.30;75.30
55207;DHT22;41079;52.856;6.534;2022-07-29T15:24:51;25.20;75.30
55207;DHT22;41079;52.856;6.534;2022-07-29T15:27:17;25.10;75.00
55207;DHT22;41079;52.856;6.534;2022-07-29T15:29:43;25.30;77.80
55207;DHT22;41079;52.856;6.534;2022-07-29T15:32:09;25.60;75.40
55207;DHT22;41079;52.856;6.534;2022-07-29T15:34:36;25.70;75.80
55207;DHT22;41079;52.856;6.534;2022-07-29T15:37:03;25.80;73.00
55207;DHT22;41079;52.856;6.534;2022-07-29T15:39:28;26.00;74.70
55207;DHT22;41079;52.856;6.534;2022-07-29T15:41:54;26.20;73.90
55207;DHT22;41079;52.856;6.534;2022-07-29T15:44:20;26.30;71.00
55207;DHT22;41079;52.856;6.534;2022-07-29T15:46:46;26.30;72.30
55207;DHT22;41079;52.856;6.534;2022-07-29T15:49:35;26.60;69.90
55207;DHT22;41079;52.856;6.534;2022-07-29T15:52:03;26.60;70.00
55207;DHT22;41079;52.856;6.534;2022-07-29T15:54:31;26.60;69.50
55207;DHT22;41079;52.856;6.534;2022-07-29T15:56:57;26.30;63.30
55207;DHT22;41079;52.856;6.534;2022-07-29T15:59:23;25.80;63.30
55207;DHT22;41079;52.856;6.534;2022-07-29T16:01:48;25.50;64.40
55207;DHT22;41079;52.856;6.534;2022-07-29T16:04:15;25.60;64.70
55207;DHT22;41079;52.856;6.534;2022-07-29T16:06:40;25.80;66.50
55207;DHT22;41079;52.856;6.534;2022-07-29T16:09:06;25.80;66.90
55207;DHT22;41079;52.856;6.534;2022-07-29T16:11:32;25.70;65.70
55207;DHT22;41079;52.856;6.534;2022-07-29T16:13:58;25.50;66.90
55207;DHT22;41079;52.856;6.534;2022-07-29T16:16:23;25.60;67.90
55207;DHT22;41079;52.856;6.534;2022-07-29T16:18:49;25.80;66.60
55207;DHT22;41079;52.856;6.534;2022-07-29T16:21:15;25.80;65.00
55207;DHT22;41079;52.856;6.534;2022-07-29T16:23:40;25.60;66.50
55207;DHT22;41079;52.856;6.534;2022-07-29T16:26:06;25.60;67.00
55207;DHT22;41079;52.856;6.534;2022-07-29T16:28:32;25.60;65.60
55207;DHT22;41079;52.856;6.534;2022-07-29T16:30:58;25.60;66.50
55207;DHT22;41079;52.856;6.534;2022-07-29T16:33:24;25.60;66.10
55207;DHT22;41079;52.856;6.534;2022-07-29T16:35:51;25.50;64.50
55207;DHT22;41079;52.856;6.534;2022-07-29T16:38:17;25.40;66.00
55207;DHT22;41079;52.856;6.534;2022-07-29T16:40:43;25.20;66.90
55207;DHT22;41079;52.856;6.534;2022-07-29T16:43:08;25.20;64.20
55207;DHT22;41079;52.856;6.534;2022-07-29T16:45:34;25.00;62.70
55207;DHT22;41079;52.856;6.534;2022-07-29T16:48:00;24.70;65.00
55207;DHT22;41079;52.856;6.534;2022-07-29T16:50:27;24.50;65.80
55207;DHT22;41079;52.856;6.534;2022-07-29T16:52:53;24.30;66.10
55207;DHT22;41079;52.856;6.534;2022-07-29T16:55:19;24.30;66.90
55207;DHT22;41079;52.856;6.534;2022-07-29T16:57:45;24.20;67.80
55207;DHT22;41079;52.856;6.534;2022-07-29T17:00:12;24.20;68.00
55207;DHT22;41079;52.856;6.534;2022-07-29T17:02:38;24.20;69.50
55207;DHT22;41079;52.856;6.534;2022-07-29T17:05:05;24.40;69.70
55207;DHT22;41079;52.856;6.534;2022-07-29T17:07:31;24.50;67.70
55207;DHT22;41079;52.856;6.534;2022-07-29T17:09:56;24.40;66.60
55207;DHT22;41079;52.856;6.534;2022-07-29T17:12:23;24.40;68.10
55207;DHT22;41079;52.856;6.534;2022-07-29T17:14:48;24.40;69.00
55207;DHT22;41079;52.856;6.534;2022-07-29T17:17:14;24.30;68.70
55207;DHT22;41079;52.856;6.534;2022-07-29T17:19:41;24.20;69.50
55207;DHT22;41079;52.856;6.534;2022-07-29T17:22:07;24.20;69.40
55207;DHT22;41079;52.856;6.534;2022-07-29T17:24:33;24.20;69.50
55207;DHT22;41079;52.856;6.534;2022-07-29T17:26:59;24.10;69.50
55207;DHT22;41079;52.856;6.534;2022-07-29T17:29:25;24.10;68.60
55207;DHT22;41079;52.856;6.534;2022-07-29T17:31:51;24.10;68.90
55207;DHT22;41079;52.856;6.534;2022-07-29T17:34:16;24.20;68.90
55207;DHT22;41079;52.856;6.534;2022-07-29T17:36:42;24.00;69.30
55207;DHT22;41079;52.856;6.534;2022-07-29T17:39:08;23.90;70.20
55207;DHT22;41079;52.856;6.534;2022-07-29T17:41:36;23.90;69.40
55207;DHT22;41079;52.856;6.534;2022-07-29T17:44:02;23.80;69.60
55207;DHT22;41079;52.856;6.534;2022-07-29T17:46:28;23.70;69.50
55207;DHT22;41079;52.856;6.534;2022-07-29T17:48:55;23.70;69.30
55207;DHT22;41079;52.856;6.534;2022-07-29T17:51:22;23.60;69.10
55207;DHT22;41079;52.856;6.534;2022-07-29T17:53:49;23.60;69.50
55207;DHT22;41079;52.856;6.534;2022-07-29T17:56:15;23.50;70.50
55207;DHT22;41079;52.856;6.534;2022-07-29T17:58:40;23.50;71.20
55207;DHT22;41079;52.856;6.534;2022-07-29T18:01:06;23.50;71.50
55207;DHT22;41079;52.856;6.534;2022-07-29T18:03:32;23.50;71.70
55207;DHT22;41079;52.856;6.534;2022-07-29T18:05:57;23.50;72.20
55207;DHT22;41079;52.856;6.534;2022-07-29T18:08:23;23.60;74.80
55207;DHT22;41079;52.856;6.534;2022-07-29T18:10:49;23.60;75.10
55207;DHT22;41079;52.856;6.534;2022-07-29T18:13:15;23.70;75.60
55207;DHT22;41079;52.856;6.534;2022-07-29T18:15:42;23.60;77.10
55207;DHT22;41079;52.856;6.534;2022-07-29T18:18:09;23.60;77.30
55207;DHT22;41079;52.856;6.534;2022-07-29T18:20:35;23.60;78.40
55207;DHT22;41079;52.856;6.534;2022-07-29T18:23:02;23.60;78.70
55207;DHT22;41079;52.856;6.534;2022-07-29T18:25:27;23.60;78.80
55207;DHT22;41079;52.856;6.534;2022-07-29T18:27:53;23.50;80.00
55207;DHT22;41079;52.856;6.534;2022-07-29T18:30:19;23.40;80.00
55207;DHT22;41079;52.856;6.534;2022-07-29T18:32:46;23.40;79.50
55207;DHT22;41079;52.856;6.534;2022-07-29T18:35:11;23.30;80.70
55207;DHT22;41079;52.856;6.534;2022-07-29T18:37:37;23.10;81.00
55207;DHT22;41079;52.856;6.534;2022-07-29T18:40:03;23.00;82.40
55207;DHT22;41079;52.856;6.534;2022-07-29T18:42:29;22.90;84.20
55207;DHT22;41079;52.856;6.534;2022-07-29T18:44:55;22.70;85.00
55207;DHT22;41079;52.856;6.534;2022-07-29T18:47:21;22.50;84.80
55207;DHT22;41079;52.856;6.534;2022-07-29T18:49:47;22.40;86.60
55207;DHT22;41079;52.856;6.534;2022-07-29T18:52:13;22.20;87.40
55207;DHT22;41079;52.856;6.534;2022-07-29T18:54:38;22.20;88.30
55207;DHT22;41079;52.856;6.534;2022-07-29T18:57:04;22.10;88.20
55207;DHT22;41079;52.856;6.534;2022-07-29T18:59:29;22.00;86.80
55207;DHT22;41079;52.856;6.534;2022-07-29T19:01:55;21.80;86.80
55207;DHT22;41079;52.856;6.534;2022-07-29T19:04:21;21.60;88.00
55207;DHT22;41079;52.856;6.534;2022-07-29T19:06:47;21.50;90.40
55207;DHT22;41079;52.856;6.534;2022-07-29T19:09:13;21.30;91.80
55207;DHT22;41079;52.856;6.534;2022-07-29T19:11:39;21.20;93.50
55207;DHT22;41079;52.856;6.534;2022-07-29T19:14:05;21.20;94.00
55207;DHT22;41079;52.856;6.534;2022-07-29T19:16:31;21.10;93.80
55207;DHT22;41079;52.856;6.534;2022-07-29T19:18:57;21.00;94.20
55207;DHT22;41079;52.856;6.534;2022-07-29T19:21:22;20.80;94.40
55207;DHT22;41079;52.856;6.534;2022-07-29T19:23:49;20.70;93.80
55207;DHT22;41079;52.856;6.534;2022-07-29T19:26:16;20.40;93.50
55207;DHT22;41079;52.856;6.534;2022-07-29T19:28:42;20.20;94.00
55207;DHT22;41079;52.856;6.534;2022-07-29T19:31:07;20.00;94.30
55207;DHT22;41079;52.856;6.534;2022-07-29T19:33:33;19.80;94.10
55207;DHT22;41079;52.856;6.534;2022-07-29T19:35:59;19.60;95.40
55207;DHT22;41079;52.856;6.534;2022-07-29T19:38:26;19.50;97.90
55207;DHT22;41079;52.856;6.534;2022-07-29T19:40:52;19.40;98.80
55207;DHT22;41079;52.856;6.534;2022-07-29T19:43:17;19.30;99.20
55207;DHT22;41079;52.856;6.534;2022-07-29T19:45:43;19.20;99.60
55207;DHT22;41079;52.856;6.534;2022-07-29T19:48:10;19.20;99.70
55207;DHT22;41079;52.856;6.534;2022-07-29T19:50:37;19.10;99.90
55207;DHT22;41079;52.856;6.534;2022-07-29T19:53:03;19.00;99.90
55207;DHT22;41079;52.856;6.534;2022-07-29T19:55:29;18.90;99.90
55207;DHT22;41079;52.856;6.534;2022-07-29T19:57:54;18.80;99.90
55207;DHT22;41079;52.856;6.534;2022-07-29T20:00:20;18.70;99.90
55207;DHT22;41079;52.856;6.534;2022-07-29T20:02:48;18.60;99.90
55207;DHT22;41079;52.856;6.534;2022-07-29T20:05:14;18.50;99.90
55207;DHT22;41079;52.856;6.534;2022-07-29T20:07:40;18.40;99.90
55207;DHT22;41079;52.856;6.534;2022-07-29T20:10:07;18.30;99.90
55207;DHT22;41079;52.856;6.534;2022-07-29T20:12:33;18.20;99.90
55207;DHT22;41079;52.856;6.534;2022-07-29T20:15:00;18.10;99.90
55207;DHT22;41079;52.856;6.534;2022-07-29T20:17:26;17.90;99.90
55207;DHT22;41079;52.856;6.534;2022-07-29T20:19:53;17.80;99.90
55207;DHT22;41079;52.856;6.534;2022-07-29T20:22:19;17.60;99.70
55207;DHT22;41079;52.856;6.534;2022-07-29T20:24:44;17.50;99.60
55207;DHT22;41079;52.856;6.534;2022-07-29T20:27:10;17.30;99.70
55207;DHT22;41079;52.856;6.534;2022-07-29T20:29:36;17.20;99.90
55207;DHT22;41079;52.856;6.534;2022-07-29T20:32:03;17.10;99.90
55207;DHT22;41079;52.856;6.534;2022-07-29T20:34:29;17.10;99.90
55207;DHT22;41079;52.856;6.534;2022-07-29T20:36:54;17.00;99.90
55207;DHT22;41079;52.856;6.534;2022-07-29T20:39:20;17.00;99.90
55207;DHT22;41079;52.856;6.534;2022-07-29T20:41:49;16.90;99.90
55207;DHT22;41079;52.856;6.534;2022-07-29T20:44:15;16.90;99.90
55207;DHT22;41079;52.856;6.534;2022-07-29T20:46:43;16.90;99.90
55207;DHT22;41079;52.856;6.534;2022-07-29T20:49:09;16.80;99.90
55207;DHT22;41079;52.856;6.534;2022-07-29T20:51:35;16.70;99.90
55207;DHT22;41079;52.856;6.534;2022-07-29T20:54:02;16.60;99.90
55207;DHT22;41079;52.856;6.534;2022-07-29T20:56:28;16.60;99.90
55207;DHT22;41079;52.856;6.534;2022-07-29T20:58:54;16.50;99.90
55207;DHT22;41079;52.856;6.534;2022-07-29T21:01:19;16.50;99.90
55207;DHT22;41079;52.856;6.534;2022-07-29T21:03:45;16.40;99.90
55207;DHT22;41079;52.856;6.534;2022-07-29T21:06:11;16.20;99.90
55207;DHT22;41079;52.856;6.534;2022-07-29T21:08:39;16.20;99.90
55207;DHT22;41079;52.856;6.534;2022-07-29T21:11:05;16.10;99.90
55207;DHT22;41079;52.856;6.534;2022-07-29T21:13:31;16.10;99.90
55207;DHT22;41079;52.856;6.534;2022-07-29T21:16:03;15.90;99.90
55207;DHT22;41079;52.856;6.534;2022-07-29T21:18:30;15.80;99.90
55207;DHT22;41079;52.856;6.534;2022-07-29T21:20:58;15.80;99.90
55207;DHT22;41079;52.856;6.534;2022-07-29T21:23:25;15.80;99.90
55207;DHT22;41079;52.856;6.534;2022-07-29T21:25:51;15.70;99.90
55207;DHT22;41079;52.856;6.534;2022-07-29T21:28:17;15.70;99.90
55207;DHT22;41079;52.856;6.534;2022-07-29T21:30:56;15.70;99.90
55207;DHT22;41079;52.856;6.534;2022-07-29T21:33:22;15.60;99.90
55207;DHT22;41079;52.856;6.534;2022-07-29T21:35:48;15.60;99.90
55207;DHT22;41079;52.856;6.534;2022-07-29T21:38:13;15.60;99.90
55207;DHT22;41079;52.856;6.534;2022-07-29T21:40:42;15.50;99.90
55207;DHT22;41079;52.856;6.534;2022-07-29T21:43:07;15.50;99.90
55207;DHT22;41079;52.856;6.534;2022-07-29T21:45:33;15.40;99.90
55207;DHT22;41079;52.856;6.534;2022-07-29T21:47:58;15.30;99.90
55207;DHT22;41079;52.856;6.534;2022-07-29T21:50:24;15.30;99.90
55207;DHT22;41079;52.856;6.534;2022-07-29T21:52:50;15.20;99.90